Bookmark and Share
Track history (hours):
 

Davis Sea

More information available from US FCC via Universal Licensing System and Coast Guard Vessel Documentation Center.

Last reported at 2014-Apr-20 11:33 UTC. Time now 2014-Apr-20 11:38 UTC.
Position N 40°38' W 074°12'.

MMSI: 367129540.

NotesDate/timePositionNaut miles runAvg speedWind from/ knotsBaromVisibWave heightAir tempDewpointWater temp
2014-Apr-20 11:33N 40°38' W 074°12'2 2.0
2014-Apr-20 10:32N 40°39' W 074°10'0 0.0
2014-Apr-20 09:33N 40°39' W 074°10'0 0.0
2014-Apr-20 08:31N 40°39' W 074°10'0 0.0
2014-Apr-20 07:33N 40°39' W 074°10'0 0.0
2014-Apr-20 06:33N 40°39' W 074°10'0 0.0
2014-Apr-20 05:33N 40°39' W 074°10'4 2.7
2014-Apr-20 04:04N 40°35' W 074°13'2 4.2
2014-Apr-20 03:33N 40°37' W 074°12'6 5.7
2014-Apr-20 02:33N 40°39' W 074°05'1 0.8
2014-Apr-20 01:33N 40°39' W 074°04'0 0.1
2014-Apr-20 00:33N 40°39' W 074°04'0 0.0
2014-Apr-19 23:33N 40°39' W 074°04'0 0.1
2014-Apr-19 22:33N 40°39' W 074°04'0 0.0
2014-Apr-19 21:33N 40°39' W 074°04'0 0.0
2014-Apr-19 20:33N 40°39' W 074°04'4 4.4
2014-Apr-19 19:33N 40°39' W 074°10'0 0.0
2014-Apr-19 18:33N 40°39' W 074°10'0 0.0
2014-Apr-19 17:33N 40°39' W 074°10'0 0.0
2014-Apr-19 16:33N 40°39' W 074°10'0 0.0
2014-Apr-19 15:33N 40°39' W 074°10'0 0.0
2014-Apr-19 14:33N 40°39' W 074°10'1 1.5
2014-Apr-19 13:33N 40°39' W 074°08'3 3.3
2014-Apr-19 12:34N 40°38' W 074°04'3 2.9
2014-Apr-19 11:33N 40°40' W 074°01'7 6.9
2014-Apr-19 10:33N 40°46' W 073°57'14 4.1
2014-Apr-19 07:09N 40°52' W 073°40'2 1.3
2014-Apr-19 05:21N 40°50' W 073°39'0 0.0
2014-Apr-19 04:33N 40°50' W 073°39'0 0.0
2014-Apr-19 03:25N 40°50' W 073°39'0 0.0
2014-Apr-19 02:25N 40°50' W 073°39'0 0.0
2014-Apr-19 00:28N 40°50' W 073°39'0 0.0
2014-Apr-18 20:33N 40°50' W 073°39'0 0.0
2014-Apr-18 17:11N 40°50' W 073°39'1 0.9
2014-Apr-18 16:33N 40°50' W 073°39'2 2.3
2014-Apr-18 15:33N 40°52' W 073°40'0 0.0
2014-Apr-18 14:30N 40°52' W 073°40'0 0.0
2014-Apr-18 12:32N 40°52' W 073°40'0 0.0
2014-Apr-18 11:18N 40°52' W 073°40'0 0.1
2014-Apr-18 10:32N 40°53' W 073°40'0 0.0
2014-Apr-18 09:33N 40°53' W 073°40'0 0.0
2014-Apr-18 08:31N 40°52' W 073°40'1 0.5
2014-Apr-18 06:24N 40°53' W 073°41'10 5.3
2014-Apr-18 04:33N 40°48' W 073°53'6 6.5
2014-Apr-18 03:33N 40°43' W 073°58'7 6.9
2014-Apr-18 02:33N 40°39' W 074°05'3 3.4
2014-Apr-18 01:33N 40°38' W 074°10'0 0.0
2014-Apr-18 00:20N 40°38' W 074°10'0 0.0
2014-Apr-17 23:33N 40°38' W 074°10'0 0.1
2014-Apr-17 22:33N 40°39' W 074°10'2 1.9
2014-Apr-17 21:33N 40°38' W 074°12'2 1.9
2014-Apr-17 20:33N 40°38' W 074°10'0 0.0
2014-Apr-17 19:33N 40°38' W 074°10'0 0.0
2014-Apr-17 18:33N 40°38' W 074°10'0 0.0
2014-Apr-17 17:33N 40°38' W 074°10'0 0.0
2014-Apr-17 16:33N 40°38' W 074°10'0 0.0
2014-Apr-17 15:25N 40°38' W 074°10'0 0.4
2014-Apr-17 14:33N 40°38' W 074°09'1 1.2
2014-Apr-17 13:33N 40°39' W 074°08'1 0.8
2014-Apr-17 12:33N 40°39' W 074°07'4 3.7
2014-Apr-17 11:25N 40°38' W 074°12'5 6.0
2014-Apr-17 10:33N 40°39' W 074°06'8 7.8
2014-Apr-17 09:33N 40°44' W 073°58'1 1.1
2014-Apr-17 08:33N 40°44' W 073°57'0 0.0
2014-Apr-17 06:28N 40°44' W 073°57'0 0.0
2014-Apr-17 05:32N 40°44' W 073°57'1 1.1
2014-Apr-17 04:33N 40°44' W 073°58'4 3.5
2014-Apr-17 03:33N 40°41' W 074°01'7 7.2
2014-Apr-17 02:33N 40°39' W 074°10'6 5.8
2014-Apr-17 01:26N 40°33' W 074°15'1 0.5
2014-Apr-17 00:24N 40°34' W 074°14'0 0.1
2014-Apr-16 23:23N 40°34' W 074°14'3 1.5
2014-Apr-16 21:28N 40°36' W 074°12'3 2.8
2014-Apr-16 20:28N 40°39' W 074°10'0 0.0
2014-Apr-16 19:33N 40°39' W 074°10'0 0.0
2014-Apr-16 18:20N 40°39' W 074°10'0 0.0
2014-Apr-16 17:10N 40°39' W 074°10'0 0.0
2014-Apr-16 16:33N 40°39' W 074°10'0 0.0
2014-Apr-16 15:25N 40°39' W 074°10'0 0.0
2014-Apr-16 13:23N 40°39' W 074°10'0 0.0
2014-Apr-16 11:23N 40°39' W 074°10'0 0.1
2014-Apr-16 10:33N 40°38' W 074°10'0 0.0
2014-Apr-16 09:33N 40°38' W 074°10'0 0.0
2014-Apr-16 08:33N 40°38' W 074°10'0 0.3
2014-Apr-16 07:33N 40°39' W 074°10'6 4.4
2014-Apr-16 06:07N 40°33' W 074°14'3 1.7
2014-Apr-16 04:21N 40°36' W 074°12'0 0.0
2014-Apr-16 02:16N 40°36' W 074°12'3 4.7
2014-Apr-16 01:33N 40°39' W 074°10'0 0.3
2014-Apr-16 00:33N 40°38' W 074°10'0 0.0
2014-Apr-15 23:33N 40°38' W 074°10'0 0.0
2014-Apr-15 22:33N 40°39' W 074°10'0 0.0
2014-Apr-15 21:32N 40°39' W 074°10'0 0.0
2014-Apr-15 20:33N 40°39' W 074°10'0 0.0
2014-Apr-15 19:33N 40°39' W 074°10'0 0.4
2014-Apr-15 18:33N 40°39' W 074°10'7 1.1
2014-Apr-15 11:31N 40°32' W 074°15'0 0.0
2014-Apr-15 07:30N 40°32' W 074°15'3 0.7
2014-Apr-15 02:31N 40°35' W 074°13'4 4.6
2014-Apr-15 01:33N 40°39' W 074°09'2 1.8
2014-Apr-15 00:34N 40°39' W 074°07'0 0.2
2014-Apr-14 23:34N 40°39' W 074°07'2 1.6
2014-Apr-14 22:34N 40°38' W 074°09'1 0.7
2014-Apr-14 21:34N 40°38' W 074°10'0 0.0
2014-Apr-14 20:34N 40°38' W 074°10'0 0.0
2014-Apr-14 19:33N 40°38' W 074°10'0 0.0
2014-Apr-14 18:33N 40°38' W 074°10'0 0.1
2014-Apr-14 17:34N 40°39' W 074°10'1 1.3
2014-Apr-14 16:34N 40°39' W 074°08'2 1.5
2014-Apr-14 15:34N 40°39' W 074°06'3 2.7
2014-Apr-14 14:32N 40°39' W 074°10'0 0.0
2014-Apr-14 13:33N 40°39' W 074°10'2 1.2
2014-Apr-14 11:33N 40°39' W 074°07'2 1.9
2014-Apr-14 10:33N 40°39' W 074°04'5 4.6
2014-Apr-14 09:33N 40°42' W 073°60'5 4.6
2014-Apr-14 08:33N 40°46' W 073°57'5 5.4
2014-Apr-14 07:33N 40°48' W 073°50'6 6.5
2014-Apr-14 06:33N 40°53' W 073°44'7 7.2
2014-Apr-14 05:33N 40°56' W 073°35'38 5.4
2014-Apr-13 22:30N 41°18' W 072°54'0 0.1
2014-Apr-13 21:12N 41°18' W 072°54'0 0.0
2014-Apr-13 20:29N 41°18' W 072°54'0 0.0
2014-Apr-13 19:30N 41°18' W 072°54'0 0.0
2014-Apr-13 16:33N 41°18' W 072°54'0 0.3
2014-Apr-13 15:29N 41°18' W 072°54'0 0.0
2014-Apr-13 14:32N 41°18' W 072°54'0 0.0
2014-Apr-13 13:33N 41°18' W 072°54'0 0.0
2014-Apr-13 12:33N 41°18' W 072°54'0 0.0
2014-Apr-13 11:33N 41°18' W 072°54'0 0.0
2014-Apr-13 10:32N 41°18' W 072°54'0 0.0
2014-Apr-13 09:32N 41°18' W 072°54'4 4.0
2014-Apr-13 08:33N 41°14' W 072°55'6 6.1
2014-Apr-13 07:33N 41°10' W 073°01'7 6.8
2014-Apr-13 06:33N 41°06' W 073°09'7 6.9
2014-Apr-13 05:33N 41°03' W 073°17'7 7.2
2014-Apr-13 04:33N 40°60' W 073°25'7 6.8
2014-Apr-13 03:33N 40°57' W 073°34'7 6.6
2014-Apr-13 02:33N 40°54' W 073°41'6 6.2
2014-Apr-13 01:32N 40°49' W 073°47'5 5.3
2014-Apr-13 00:33N 40°48' W 073°54'7 6.6
2014-Apr-12 23:33N 40°43' W 073°58'7 6.7
2014-Apr-12 22:33N 40°39' W 074°06'10 3.1
2014-Apr-12 19:23N 40°32' W 074°15'5 2.7
2014-Apr-12 17:33N 40°37' W 074°12'2 2.2
2014-Apr-12 16:26N 40°38' W 074°10'1 1.3
2014-Apr-12 15:33N 40°39' W 074°09'1 0.6
2014-Apr-12 14:33N 40°40' W 074°09'0 0.0
2014-Apr-12 13:33N 40°40' W 074°09'0 0.0
2014-Apr-12 12:33N 40°40' W 074°09'0 0.0
2014-Apr-12 11:33N 40°40' W 074°09'0 0.0
2014-Apr-12 10:33N 40°40' W 074°09'2 2.3
2014-Apr-12 09:33N 40°39' W 074°11'7 4.9
2014-Apr-12 08:12N 40°33' W 074°15'4 4.7
2014-Apr-12 07:19N 40°36' W 074°12'4 5.1
2014-Apr-12 06:33N 40°39' W 074°08'1 0.7
2014-Apr-12 05:33N 40°39' W 074°07'2 0.7
2014-Apr-12 02:33N 40°39' W 074°10'3 2.8
2014-Apr-12 01:33N 40°36' W 074°12'7 6.9
2014-Apr-12 00:28N 40°30' W 074°17'2 1.4
2014-Apr-11 23:17N 40°31' W 074°15'6 5.7
2014-Apr-11 22:14N 40°37' W 074°12'1 2.1
2014-Apr-11 21:32N 40°35' W 074°12'4 4.1
2014-Apr-11 20:31N 40°39' W 074°10'2 2.5
2014-Apr-11 19:33N 40°39' W 074°07'1 0.6
2014-Apr-11 18:33N 40°39' W 074°06'3 2.3
2014-Apr-11 17:25N 40°39' W 074°10'0 0.0
2014-Apr-11 16:33N 40°39' W 074°10'0 0.0
2014-Apr-11 15:16N 40°39' W 074°10'0 0.0
2014-Apr-11 13:33N 40°39' W 074°10'0 0.0
2014-Apr-11 12:33N 40°39' W 074°10'0 0.0
2014-Apr-11 11:33N 40°39' W 074°10'0 0.0
2014-Apr-11 10:33N 40°39' W 074°10'0 0.0
2014-Apr-11 09:33N 40°39' W 074°10'1 1.0
2014-Apr-11 08:33N 40°39' W 074°09'8 8.0
2014-Apr-11 07:33N 40°42' W 073°59'6 6.0
2014-Apr-11 06:31N 40°48' W 073°55'2 1.7
2014-Apr-11 05:31N 40°47' W 073°56'4 4.6
2014-Apr-11 04:33N 40°43' W 073°59'5 5.4
2014-Apr-11 03:34N 40°39' W 074°04'9 2.3
2014-Apr-10 23:26N 40°34' W 074°14'2 0.6
2014-Apr-10 20:13N 40°35' W 074°13'4 6.7
2014-Apr-10 19:33N 40°39' W 074°10'0 0.2
2014-Apr-10 17:30N 40°38' W 074°10'0 0.0
2014-Apr-10 16:29N 40°38' W 074°10'0 0.0
2014-Apr-10 14:33N 40°39' W 074°10'4 4.1
2014-Apr-10 13:33N 40°39' W 074°05'4 3.9
2014-Apr-10 12:32N 40°38' W 074°10'4 4.5
2014-Apr-10 11:33N 40°39' W 074°04'  

Dump ship's entire track history

sailing weather and tide predictions

Davis Sea — WDC2883 — position and weather